sensor_id;sensor_type;location;lat;lon;timestamp;temperature;humidity
30234;DHT22;17046;52.074;4.748;2022-07-10T00:02:12;15.50;1.00
30234;DHT22;17046;52.074;4.748;2022-07-10T00:04:37;15.40;1.00
30234;DHT22;17046;52.074;4.748;2022-07-10T00:07:03;15.40;1.00
30234;DHT22;17046;52.074;4.748;2022-07-10T00:09:29;15.20;1.00
30234;DHT22;17046;52.074;4.748;2022-07-10T00:11:55;15.10;1.00
30234;DHT22;17046;52.074;4.748;2022-07-10T00:14:20;15.00;1.00
30234;DHT22;17046;52.074;4.748;2022-07-10T00:16:46;14.90;1.00
30234;DHT22;17046;52.074;4.748;2022-07-10T00:19:12;14.90;1.00
30234;DHT22;17046;52.074;4.748;2022-07-10T00:21:37;14.80;1.00
30234;DHT22;17046;52.074;4.748;2022-07-10T00:24:04;14.70;1.00
30234;DHT22;17046;52.074;4.748;2022-07-10T00:26:29;14.60;1.00
30234;DHT22;17046;52.074;4.748;2022-07-10T00:28:55;14.60;1.00
30234;DHT22;17046;52.074;4.748;2022-07-10T00:31:21;14.50;1.00
30234;DHT22;17046;52.074;4.748;2022-07-10T00:33:46;14.40;1.00
30234;DHT22;17046;52.074;4.748;2022-07-10T00:36:13;14.40;1.70
30234;DHT22;17046;52.074;4.748;2022-07-10T00:38:39;14.30;25.10
30234;DHT22;17046;52.074;4.748;2022-07-10T00:41:05;14.30;41.80
30234;DHT22;17046;52.074;4.748;2022-07-10T00:43:35;14.10;62.80
30234;DHT22;17046;52.074;4.748;2022-07-10T00:46:15;14.20;77.80
30234;DHT22;17046;52.074;4.748;2022-07-10T00:48:46;14.20;72.50
30234;DHT22;17046;52.074;4.748;2022-07-10T00:51:11;14.20;86.60
30234;DHT22;17046;52.074;4.748;2022-07-10T00:53:37;14.20;87.10
30234;DHT22;17046;52.074;4.748;2022-07-10T00:56:03;14.20;80.60
30234;DHT22;17046;52.074;4.748;2022-07-10T00:58:29;14.20;70.30
30234;DHT22;17046;52.074;4.748;2022-07-10T01:00:54;14.30;74.60
30234;DHT22;17046;52.074;4.748;2022-07-10T01:03:20;14.30;56.20
30234;DHT22;17046;52.074;4.748;2022-07-10T01:05:46;14.20;72.50
30234;DHT22;17046;52.074;4.748;2022-07-10T01:08:11;14.20;86.30
30234;DHT22;17046;52.074;4.748;2022-07-10T01:10:37;14.10;99.90
30234;DHT22;17046;52.074;4.748;2022-07-10T01:13:03;14.10;99.90
30234;DHT22;17046;52.074;4.748;2022-07-10T01:15:29;14.00;99.90
30234;DHT22;17046;52.074;4.748;2022-07-10T01:17:55;14.00;99.90
30234;DHT22;17046;52.074;4.748;2022-07-10T01:20:21;13.90;99.90
30234;DHT22;17046;52.074;4.748;2022-07-10T01:22:54;14.00;99.90
30234;DHT22;17046;52.074;4.748;2022-07-10T01:25:20;13.90;99.90
30234;DHT22;17046;52.074;4.748;2022-07-10T01:27:46;13.90;99.90
30234;DHT22;17046;52.074;4.748;2022-07-10T01:30:11;13.90;99.90
30234;DHT22;17046;52.074;4.748;2022-07-10T01:32:38;13.80;99.90
30234;DHT22;17046;52.074;4.748;2022-07-10T01:35:05;13.80;99.90
30234;DHT22;17046;52.074;4.748;2022-07-10T01:37:31;13.70;99.90
30234;DHT22;17046;52.074;4.748;2022-07-10T01:39:56;13.80;99.90
30234;DHT22;17046;52.074;4.748;2022-07-10T01:42:22;13.70;99.90
30234;DHT22;17046;52.074;4.748;2022-07-10T01:44:47;13.60;99.90
30234;DHT22;17046;52.074;4.748;2022-07-10T01:47:13;13.60;99.90
30234;DHT22;17046;52.074;4.748;2022-07-10T01:49:38;13.50;99.90
30234;DHT22;17046;52.074;4.748;2022-07-10T01:52:04;13.50;99.90
30234;DHT22;17046;52.074;4.748;2022-07-10T01:54:30;13.50;99.90
30234;DHT22;17046;52.074;4.748;2022-07-10T01:56:56;13.40;99.90
30234;DHT22;17046;52.074;4.748;2022-07-10T01:59:21;13.40;99.90
30234;DHT22;17046;52.074;4.748;2022-07-10T02:01:47;13.30;99.90
30234;DHT22;17046;52.074;4.748;2022-07-10T02:04:12;13.30;99.90
30234;DHT22;17046;52.074;4.748;2022-07-10T02:06:57;13.30;99.90
30234;DHT22;17046;52.074;4.748;2022-07-10T02:09:22;13.20;99.90
30234;DHT22;17046;52.074;4.748;2022-07-10T02:11:48;13.20;99.90
30234;DHT22;17046;52.074;4.748;2022-07-10T02:14:13;13.20;99.90
30234;DHT22;17046;52.074;4.748;2022-07-10T02:16:39;13.20;99.90
30234;DHT22;17046;52.074;4.748;2022-07-10T02:19:05;13.20;1.00
30234;DHT22;17046;52.074;4.748;2022-07-10T02:21:30;13.20;1.00
30234;DHT22;17046;52.074;4.748;2022-07-10T02:23:56;13.40;1.00
30234;DHT22;17046;52.074;4.748;2022-07-10T02:26:21;13.50;1.00
30234;DHT22;17046;52.074;4.748;2022-07-10T02:28:47;13.60;1.00
30234;DHT22;17046;52.074;4.748;2022-07-10T02:31:13;13.60;1.00
30234;DHT22;17046;52.074;4.748;2022-07-10T02:33:38;13.70;1.00
30234;DHT22;17046;52.074;4.748;2022-07-10T02:36:04;13.80;1.00
30234;DHT22;17046;52.074;4.748;2022-07-10T02:38:30;13.80;1.00
30234;DHT22;17046;52.074;4.748;2022-07-10T02:40:56;13.90;99.90
30234;DHT22;17046;52.074;4.748;2022-07-10T02:43:21;14.00;99.90
30234;DHT22;17046;52.074;4.748;2022-07-10T02:45:47;14.00;99.90
30234;DHT22;17046;52.074;4.748;2022-07-10T02:48:14;14.00;99.90
30234;DHT22;17046;52.074;4.748;2022-07-10T02:50:40;14.10;99.90
30234;DHT22;17046;52.074;4.748;2022-07-10T02:53:05;14.10;99.90
30234;DHT22;17046;52.074;4.748;2022-07-10T02:55:31;14.10;99.90
30234;DHT22;17046;52.074;4.748;2022-07-10T02:57:58;14.10;99.90
30234;DHT22;17046;52.074;4.748;2022-07-10T03:00:24;14.20;99.90
30234;DHT22;17046;52.074;4.748;2022-07-10T03:02:50;14.20;99.90
30234;DHT22;17046;52.074;4.748;2022-07-10T03:05:15;14.30;99.90
30234;DHT22;17046;52.074;4.748;2022-07-10T03:07:41;14.30;99.90
30234;DHT22;17046;52.074;4.748;2022-07-10T03:10:07;14.30;99.90
30234;DHT22;17046;52.074;4.748;2022-07-10T03:12:33;14.30;99.90
30234;DHT22;17046;52.074;4.748;2022-07-10T03:14:58;14.30;1.00
30234;DHT22;17046;52.074;4.748;2022-07-10T03:17:24;14.30;1.00
30234;DHT22;17046;52.074;4.748;2022-07-10T03:19:50;14.40;1.00
30234;DHT22;17046;52.074;4.748;2022-07-10T03:22:16;14.40;99.90
30234;DHT22;17046;52.074;4.748;2022-07-10T03:24:41;14.40;99.90
30234;DHT22;17046;52.074;4.748;2022-07-10T03:27:08;14.40;99.90
30234;DHT22;17046;52.074;4.748;2022-07-10T03:29:34;14.50;99.90
30234;DHT22;17046;52.074;4.748;2022-07-10T03:31:59;14.50;99.90
30234;DHT22;17046;52.074;4.748;2022-07-10T03:34:25;14.60;99.90
30234;DHT22;17046;52.074;4.748;2022-07-10T03:36:50;14.60;99.90
30234;DHT22;17046;52.074;4.748;2022-07-10T03:39:17;14.70;99.90
30234;DHT22;17046;52.074;4.748;2022-07-10T03:41:42;14.70;99.90
30234;DHT22;17046;52.074;4.748;2022-07-10T03:44:08;14.70;99.90
30234;DHT22;17046;52.074;4.748;2022-07-10T03:46:33;14.70;99.90
30234;DHT22;17046;52.074;4.748;2022-07-10T03:48:59;14.80;99.90
30234;DHT22;17046;52.074;4.748;2022-07-10T03:51:25;14.80;99.90
30234;DHT22;17046;52.074;4.748;2022-07-10T03:53:51;14.80;99.90
30234;DHT22;17046;52.074;4.748;2022-07-10T03:56:16;14.80;99.90
30234;DHT22;17046;52.074;4.748;2022-07-10T03:59:01;14.80;99.90
30234;DHT22;17046;52.074;4.748;2022-07-10T04:01:26;14.80;99.90
30234;DHT22;17046;52.074;4.748;2022-07-10T04:03:52;14.90;99.90
30234;DHT22;17046;52.074;4.748;2022-07-10T04:06:17;14.80;99.90
30234;DHT22;17046;52.074;4.748;2022-07-10T04:08:43;14.90;99.90
30234;DHT22;17046;52.074;4.748;2022-07-10T04:11:08;15.00;99.90
30234;DHT22;17046;52.074;4.748;2022-07-10T04:13:34;14.90;99.90
30234;DHT22;17046;52.074;4.748;2022-07-10T04:15:59;15.00;99.90
30234;DHT22;17046;52.074;4.748;2022-07-10T04:18:25;15.00;99.90
30234;DHT22;17046;52.074;4.748;2022-07-10T04:20:50;15.00;99.90
30234;DHT22;17046;52.074;4.748;2022-07-10T04:23:16;15.00;99.90
30234;DHT22;17046;52.074;4.748;2022-07-10T04:25:41;15.10;99.90
30234;DHT22;17046;52.074;4.748;2022-07-10T04:28:07;15.10;99.90
30234;DHT22;17046;52.074;4.748;2022-07-10T04:30:32;15.20;99.90
30234;DHT22;17046;52.074;4.748;2022-07-10T04:32:58;15.30;99.90
30234;DHT22;17046;52.074;4.748;2022-07-10T04:35:23;15.40;99.90
30234;DHT22;17046;52.074;4.748;2022-07-10T04:37:49;15.40;99.90
30234;DHT22;17046;52.074;4.748;2022-07-10T04:40:14;15.40;99.90
30234;DHT22;17046;52.074;4.748;2022-07-10T04:42:40;15.50;99.90
30234;DHT22;17046;52.074;4.748;2022-07-10T04:45:06;15.50;99.90
30234;DHT22;17046;52.074;4.748;2022-07-10T04:47:31;15.50;99.90
30234;DHT22;17046;52.074;4.748;2022-07-10T04:49:57;15.60;99.90
30234;DHT22;17046;52.074;4.748;2022-07-10T04:52:22;15.60;99.90
30234;DHT22;17046;52.074;4.748;2022-07-10T04:54:48;15.70;99.90
30234;DHT22;17046;52.074;4.748;2022-07-10T04:57:13;15.70;99.90
30234;DHT22;17046;52.074;4.748;2022-07-10T04:59:39;15.70;99.90
30234;DHT22;17046;52.074;4.748;2022-07-10T05:02:04;15.70;99.90
30234;DHT22;17046;52.074;4.748;2022-07-10T05:04:30;15.70;99.90
30234;DHT22;17046;52.074;4.748;2022-07-10T05:06:56;15.80;99.90
30234;DHT22;17046;52.074;4.748;2022-07-10T05:09:21;15.80;99.90
30234;DHT22;17046;52.074;4.748;2022-07-10T05:11:47;15.80;99.90
30234;DHT22;17046;52.074;4.748;2022-07-10T05:14:13;16.00;99.90
30234;DHT22;17046;52.074;4.748;2022-07-10T05:16:38;16.00;99.90
30234;DHT22;17046;52.074;4.748;2022-07-10T05:19:04;16.10;99.90
30234;DHT22;17046;52.074;4.748;2022-07-10T05:21:30;16.10;99.90
30234;DHT22;17046;52.074;4.748;2022-07-10T05:23:55;16.20;88.70
30234;DHT22;17046;52.074;4.748;2022-07-10T05:26:21;16.30;72.20
30234;DHT22;17046;52.074;4.748;2022-07-10T05:28:46;16.40;42.40
30234;DHT22;17046;52.074;4.748;2022-07-10T05:31:12;16.40;1.00
30234;DHT22;17046;52.074;4.748;2022-07-10T05:33:37;16.50;1.00
30234;DHT22;17046;52.074;4.748;2022-07-10T05:36:07;16.60;1.00
30234;DHT22;17046;52.074;4.748;2022-07-10T05:38:33;16.70;1.00
30234;DHT22;17046;52.074;4.748;2022-07-10T05:40:58;16.90;1.00
30234;DHT22;17046;52.074;4.748;2022-07-10T05:43:24;17.00;1.00
30234;DHT22;17046;52.074;4.748;2022-07-10T05:45:50;17.20;1.00
30234;DHT22;17046;52.074;4.748;2022-07-10T05:48:16;17.30;1.00
30234;DHT22;17046;52.074;4.748;2022-07-10T05:50:42;17.40;1.00
30234;DHT22;17046;52.074;4.748;2022-07-10T05:53:07;17.40;1.00
30234;DHT22;17046;52.074;4.748;2022-07-10T05:55:33;17.50;1.00
30234;DHT22;17046;52.074;4.748;2022-07-10T05:57:58;17.60;1.00
30234;DHT22;17046;52.074;4.748;2022-07-10T06:00:24;17.70;99.90
30234;DHT22;17046;52.074;4.748;2022-07-10T06:02:50;17.80;99.90
30234;DHT22;17046;52.074;4.748;2022-07-10T06:05:15;17.90;99.90
30234;DHT22;17046;52.074;4.748;2022-07-10T06:07:41;17.90;99.90
30234;DHT22;17046;52.074;4.748;2022-07-10T06:10:07;17.80;99.90
30234;DHT22;17046;52.074;4.748;2022-07-10T06:12:33;17.80;99.90
30234;DHT22;17046;52.074;4.748;2022-07-10T06:14:58;17.80;99.90
30234;DHT22;17046;52.074;4.748;2022-07-10T06:17:24;18.00;99.90
30234;DHT22;17046;52.074;4.748;2022-07-10T06:19:50;18.00;99.90
30234;DHT22;17046;52.074;4.748;2022-07-10T06:22:15;18.10;99.90
30234;DHT22;17046;52.074;4.748;2022-07-10T06:24:56;18.10;99.90
30234;DHT22;17046;52.074;4.748;2022-07-10T06:27:22;18.30;99.90
30234;DHT22;17046;52.074;4.748;2022-07-10T06:29:48;18.60;99.90
30234;DHT22;17046;52.074;4.748;2022-07-10T06:32:13;19.10;99.90
30234;DHT22;17046;52.074;4.748;2022-07-10T06:34:39;19.40;99.90
30234;DHT22;17046;52.074;4.748;2022-07-10T06:37:05;19.40;99.90
30234;DHT22;17046;52.074;4.748;2022-07-10T06:39:33;19.50;99.90
30234;DHT22;17046;52.074;4.748;2022-07-10T06:42:00;19.50;99.90
30234;DHT22;17046;52.074;4.748;2022-07-10T06:44:26;19.70;99.90
30234;DHT22;17046;52.074;4.748;2022-07-10T06:46:51;19.50;99.90
30234;DHT22;17046;52.074;4.748;2022-07-10T06:49:36;19.20;99.90
30234;DHT22;17046;52.074;4.748;2022-07-10T06:52:02;18.70;99.90
30234;DHT22;17046;52.074;4.748;2022-07-10T06:54:27;18.60;99.90
30234;DHT22;17046;52.074;4.748;2022-07-10T06:56:53;18.40;99.90
30234;DHT22;17046;52.074;4.748;2022-07-10T06:59:19;18.20;99.90
30234;DHT22;17046;52.074;4.748;2022-07-10T07:01:44;18.30;99.90
30234;DHT22;17046;52.074;4.748;2022-07-10T07:04:10;18.40;99.90
30234;DHT22;17046;52.074;4.748;2022-07-10T07:06:35;18.70;99.90
30234;DHT22;17046;52.074;4.748;2022-07-10T07:09:01;18.80;99.90
30234;DHT22;17046;52.074;4.748;2022-07-10T07:11:26;19.30;99.90
30234;DHT22;17046;52.074;4.748;2022-07-10T07:13:52;19.60;99.90
30234;DHT22;17046;52.074;4.748;2022-07-10T07:16:17;19.50;99.90
30234;DHT22;17046;52.074;4.748;2022-07-10T07:18:45;19.30;99.90
30234;DHT22;17046;52.074;4.748;2022-07-10T07:21:17;19.30;99.90
30234;DHT22;17046;52.074;4.748;2022-07-10T07:24:01;19.40;99.90
30234;DHT22;17046;52.074;4.748;2022-07-10T07:26:27;19.40;99.90
30234;DHT22;17046;52.074;4.748;2022-07-10T07:28:52;19.40;99.90
30234;DHT22;17046;52.074;4.748;2022-07-10T07:31:18;19.30;99.90
30234;DHT22;17046;52.074;4.748;2022-07-10T07:33:44;19.20;99.90
30234;DHT22;17046;52.074;4.748;2022-07-10T07:36:09;19.20;99.90
30234;DHT22;17046;52.074;4.748;2022-07-10T07:38:35;19.20;99.90
30234;DHT22;17046;52.074;4.748;2022-07-10T07:41:01;19.20;99.90
30234;DHT22;17046;52.074;4.748;2022-07-10T07:43:26;19.00;99.90
30234;DHT22;17046;52.074;4.748;2022-07-10T07:45:52;19.10;99.90
30234;DHT22;17046;52.074;4.748;2022-07-10T07:48:17;19.20;99.90
30234;DHT22;17046;52.074;4.748;2022-07-10T07:50:43;19.20;99.90
30234;DHT22;17046;52.074;4.748;2022-07-10T07:53:08;19.20;99.90
30234;DHT22;17046;52.074;4.748;2022-07-10T07:55:34;19.30;99.90
30234;DHT22;17046;52.074;4.748;2022-07-10T07:58:00;19.40;99.90
30234;DHT22;17046;52.074;4.748;2022-07-10T08:00:27;19.30;99.90
30234;DHT22;17046;52.074;4.748;2022-07-10T08:02:55;19.40;99.90
30234;DHT22;17046;52.074;4.748;2022-07-10T08:05:21;19.40;99.90
30234;DHT22;17046;52.074;4.748;2022-07-10T08:07:53;19.40;99.90
30234;DHT22;17046;52.074;4.748;2022-07-10T08:10:23;19.60;99.90
30234;DHT22;17046;52.074;4.748;2022-07-10T08:12:49;19.70;99.90
30234;DHT22;17046;52.074;4.748;2022-07-10T08:15:19;19.90;99.90
30234;DHT22;17046;52.074;4.748;2022-07-10T08:17:48;19.90;99.90
30234;DHT22;17046;52.074;4.748;2022-07-10T08:20:14;20.00;99.90
30234;DHT22;17046;52.074;4.748;2022-07-10T08:22:41;20.10;99.90
30234;DHT22;17046;52.074;4.748;2022-07-10T08:25:07;20.30;99.90
30234;DHT22;17046;52.074;4.748;2022-07-10T08:27:33;20.60;99.90
30234;DHT22;17046;52.074;4.748;2022-07-10T08:29:59;21.00;99.90
30234;DHT22;17046;52.074;4.748;2022-07-10T08:32:25;21.10;99.90
30234;DHT22;17046;52.074;4.748;2022-07-10T08:34:52;21.30;99.90
30234;DHT22;17046;52.074;4.748;2022-07-10T08:37:18;21.30;99.90
30234;DHT22;17046;52.074;4.748;2022-07-10T08:39:45;21.30;99.90
30234;DHT22;17046;52.074;4.748;2022-07-10T08:42:11;21.60;99.90
30234;DHT22;17046;52.074;4.748;2022-07-10T08:44:37;22.00;99.90
30234;DHT22;17046;52.074;4.748;2022-07-10T08:47:03;22.00;99.90
30234;DHT22;17046;52.074;4.748;2022-07-10T08:49:30;22.20;99.90
30234;DHT22;17046;52.074;4.748;2022-07-10T08:52:04;22.60;99.90
30234;DHT22;17046;52.074;4.748;2022-07-10T08:54:31;22.70;99.90
30234;DHT22;17046;52.074;4.748;2022-07-10T08:56:58;22.80;99.90
30234;DHT22;17046;52.074;4.748;2022-07-10T08:59:24;22.60;99.90
30234;DHT22;17046;52.074;4.748;2022-07-10T09:01:50;22.40;99.90
30234;DHT22;17046;52.074;4.748;2022-07-10T09:04:21;22.20;99.90
30234;DHT22;17046;52.074;4.748;2022-07-10T09:06:47;22.30;99.90
30234;DHT22;17046;52.074;4.748;2022-07-10T09:09:12;22.10;99.90
30234;DHT22;17046;52.074;4.748;2022-07-10T09:11:41;22.20;99.90
30234;DHT22;17046;52.074;4.748;2022-07-10T09:14:11;22.20;99.90
30234;DHT22;17046;52.074;4.748;2022-07-10T09:16:39;22.20;99.90
30234;DHT22;17046;52.074;4.748;2022-07-10T09:19:21;22.30;99.90
30234;DHT22;17046;52.074;4.748;2022-07-10T09:21:55;22.80;99.90
30234;DHT22;17046;52.074;4.748;2022-07-10T09:24:25;22.80;99.90
30234;DHT22;17046;52.074;4.748;2022-07-10T09:29:22;22.90;99.90
30234;DHT22;17046;52.074;4.748;2022-07-10T09:31:52;23.30;99.90
30234;DHT22;17046;52.074;4.748;2022-07-10T09:34:34;23.80;99.90
30234;DHT22;17046;52.074;4.748;2022-07-10T09:37:20;23.60;99.90
30234;DHT22;17046;52.074;4.748;2022-07-10T09:39:55;23.40;99.90
30234;DHT22;17046;52.074;4.748;2022-07-10T09:42:34;23.40;99.90
30234;DHT22;17046;52.074;4.748;2022-07-10T09:45:16;23.50;99.90
30234;DHT22;17046;52.074;4.748;2022-07-10T09:47:59;23.70;99.90
30234;DHT22;17046;52.074;4.748;2022-07-10T09:50:32;23.70;99.90
30234;DHT22;17046;52.074;4.748;2022-07-10T09:53:04;23.80;99.90
30234;DHT22;17046;52.074;4.748;2022-07-10T09:55:32;23.70;99.90
30234;DHT22;17046;52.074;4.748;2022-07-10T09:58:06;23.70;99.90
30234;DHT22;17046;52.074;4.748;2022-07-10T10:00:37;23.70;99.90
30234;DHT22;17046;52.074;4.748;2022-07-10T10:03:05;23.60;99.90
30234;DHT22;17046;52.074;4.748;2022-07-10T10:05:33;23.50;99.90
30234;DHT22;17046;52.074;4.748;2022-07-10T10:08:05;23.40;99.90
30234;DHT22;17046;52.074;4.748;2022-07-10T10:10:34;23.00;99.90
30234;DHT22;17046;52.074;4.748;2022-07-10T10:13:03;23.20;99.90
30234;DHT22;17046;52.074;4.748;2022-07-10T10:15:30;23.30;99.90
30234;DHT22;17046;52.074;4.748;2022-07-10T10:17:57;23.50;99.90
30234;DHT22;17046;52.074;4.748;2022-07-10T10:20:25;23.50;99.90
30234;DHT22;17046;52.074;4.748;2022-07-10T10:23:09;23.40;99.90
30234;DHT22;17046;52.074;4.748;2022-07-10T10:25:35;23.80;99.90
30234;DHT22;17046;52.074;4.748;2022-07-10T10:28:05;23.90;99.90
30234;DHT22;17046;52.074;4.748;2022-07-10T10:30:32;23.90;99.90
30234;DHT22;17046;52.074;4.748;2022-07-10T10:32:58;24.20;99.90
30234;DHT22;17046;52.074;4.748;2022-07-10T10:35:44;24.20;99.90
30234;DHT22;17046;52.074;4.748;2022-07-10T10:38:13;24.10;99.90
30234;DHT22;17046;52.074;4.748;2022-07-10T10:40:39;24.30;99.90
30234;DHT22;17046;52.074;4.748;2022-07-10T10:43:23;24.30;99.90
30234;DHT22;17046;52.074;4.748;2022-07-10T10:45:50;24.40;99.90
30234;DHT22;17046;52.074;4.748;2022-07-10T10:48:18;24.30;99.90
30234;DHT22;17046;52.074;4.748;2022-07-10T10:50:55;24.40;99.90
30234;DHT22;17046;52.074;4.748;2022-07-10T10:53:26;24.40;99.90
30234;DHT22;17046;52.074;4.748;2022-07-10T10:58:43;24.50;99.90
30234;DHT22;17046;52.074;4.748;2022-07-10T11:06:49;24.50;99.90
30234;DHT22;17046;52.074;4.748;2022-07-10T11:09:31;24.10;99.90
30234;DHT22;17046;52.074;4.748;2022-07-10T11:12:05;24.10;99.90
30234;DHT22;17046;52.074;4.748;2022-07-10T11:14:33;24.10;99.90
30234;DHT22;17046;52.074;4.748;2022-07-10T11:16:59;24.30;99.90
30234;DHT22;17046;52.074;4.748;2022-07-10T11:19:27;24.50;99.90
30234;DHT22;17046;52.074;4.748;2022-07-10T11:27:34;24.40;99.90
30234;DHT22;17046;52.074;4.748;2022-07-10T11:30:02;24.40;99.90
30234;DHT22;17046;52.074;4.748;2022-07-10T11:32:28;24.10;99.90
30234;DHT22;17046;52.074;4.748;2022-07-10T11:34:55;24.10;99.90
30234;DHT22;17046;52.074;4.748;2022-07-10T11:37:21;24.20;99.90
30234;DHT22;17046;52.074;4.748;2022-07-10T11:39:48;24.20;99.90
30234;DHT22;17046;52.074;4.748;2022-07-10T11:42:14;24.10;99.90
30234;DHT22;17046;52.074;4.748;2022-07-10T11:44:39;23.80;99.90
30234;DHT22;17046;52.074;4.748;2022-07-10T11:47:05;23.80;99.90
30234;DHT22;17046;52.074;4.748;2022-07-10T11:49:33;23.90;99.90
30234;DHT22;17046;52.074;4.748;2022-07-10T11:52:03;24.20;99.90
30234;DHT22;17046;52.074;4.748;2022-07-10T11:54:29;24.30;99.90
30234;DHT22;17046;52.074;4.748;2022-07-10T11:56:55;24.30;99.90
30234;DHT22;17046;52.074;4.748;2022-07-10T11:59:25;24.30;99.90
30234;DHT22;17046;52.074;4.748;2022-07-10T12:01:52;24.30;99.90
30234;DHT22;17046;52.074;4.748;2022-07-10T12:04:19;24.40;99.90
30234;DHT22;17046;52.074;4.748;2022-07-10T12:06:51;24.40;99.90
30234;DHT22;17046;52.074;4.748;2022-07-10T12:09:19;24.50;99.90
30234;DHT22;17046;52.074;4.748;2022-07-10T12:14:26;24.60;99.90
30234;DHT22;17046;52.074;4.748;2022-07-10T12:16:53;24.80;99.90
30234;DHT22;17046;52.074;4.748;2022-07-10T12:19:22;24.90;99.90
30234;DHT22;17046;52.074;4.748;2022-07-10T12:21:48;25.00;99.90
30234;DHT22;17046;52.074;4.748;2022-07-10T12:24:17;24.50;99.90
30234;DHT22;17046;52.074;4.748;2022-07-10T12:26:45;24.70;99.90
30234;DHT22;17046;52.074;4.748;2022-07-10T12:31:47;25.10;99.90
30234;DHT22;17046;52.074;4.748;2022-07-10T12:34:13;25.20;99.90
30234;DHT22;17046;52.074;4.748;2022-07-10T12:36:52;25.50;99.90
30234;DHT22;17046;52.074;4.748;2022-07-10T12:39:20;25.50;99.90
30234;DHT22;17046;52.074;4.748;2022-07-10T12:44:36;25.60;99.90
30234;DHT22;17046;52.074;4.748;2022-07-10T12:47:20;25.40;99.90
30234;DHT22;17046;52.074;4.748;2022-07-10T12:52:20;25.10;99.90
30234;DHT22;17046;52.074;4.748;2022-07-10T12:54:46;25.20;99.90
30234;DHT22;17046;52.074;4.748;2022-07-10T12:57:12;25.20;99.90
30234;DHT22;17046;52.074;4.748;2022-07-10T12:59:38;25.10;99.90
30234;DHT22;17046;52.074;4.748;2022-07-10T13:02:20;24.90;99.90
30234;DHT22;17046;52.074;4.748;2022-07-10T13:04:54;25.00;99.90
30234;DHT22;17046;52.074;4.748;2022-07-10T13:07:20;24.90;99.90
30234;DHT22;17046;52.074;4.748;2022-07-10T13:09:47;24.70;99.90
30234;DHT22;17046;52.074;4.748;2022-07-10T13:12:15;24.70;99.90
30234;DHT22;17046;52.074;4.748;2022-07-10T13:14:41;24.80;99.90
30234;DHT22;17046;52.074;4.748;2022-07-10T13:17:06;25.00;99.90
30234;DHT22;17046;52.074;4.748;2022-07-10T13:19:32;25.00;99.90
30234;DHT22;17046;52.074;4.748;2022-07-10T13:21:57;25.10;99.90
30234;DHT22;17046;52.074;4.748;2022-07-10T13:24:23;25.10;99.90
30234;DHT22;17046;52.074;4.748;2022-07-10T13:26:48;25.00;99.90
30234;DHT22;17046;52.074;4.748;2022-07-10T13:29:14;25.20;99.90
30234;DHT22;17046;52.074;4.748;2022-07-10T13:31:40;25.30;99.90
30234;DHT22;17046;52.074;4.748;2022-07-10T13:34:06;25.50;99.90
30234;DHT22;17046;52.074;4.748;2022-07-10T13:36:31;25.40;99.90
30234;DHT22;17046;52.074;4.748;2022-07-10T13:38:57;25.10;99.90
30234;DHT22;17046;52.074;4.748;2022-07-10T13:41:22;25.10;99.90
30234;DHT22;17046;52.074;4.748;2022-07-10T13:43:48;24.90;99.90
30234;DHT22;17046;52.074;4.748;2022-07-10T13:46:14;25.10;99.90
30234;DHT22;17046;52.074;4.748;2022-07-10T13:48:40;25.00;99.90
30234;DHT22;17046;52.074;4.748;2022-07-10T13:51:05;25.00;99.90
30234;DHT22;17046;52.074;4.748;2022-07-10T13:53:31;24.70;99.90
30234;DHT22;17046;52.074;4.748;2022-07-10T13:55:56;24.60;99.90
30234;DHT22;17046;52.074;4.748;2022-07-10T13:58:22;24.50;99.90
30234;DHT22;17046;52.074;4.748;2022-07-10T14:00:48;24.50;99.90
30234;DHT22;17046;52.074;4.748;2022-07-10T14:03:14;24.50;99.90
30234;DHT22;17046;52.074;4.748;2022-07-10T14:05:41;24.50;99.90
30234;DHT22;17046;52.074;4.748;2022-07-10T14:08:06;24.50;99.90
30234;DHT22;17046;52.074;4.748;2022-07-10T14:10:32;24.50;99.90
30234;DHT22;17046;52.074;4.748;2022-07-10T14:12:57;24.70;99.90
30234;DHT22;17046;52.074;4.748;2022-07-10T14:15:23;25.00;99.90
30234;DHT22;17046;52.074;4.748;2022-07-10T14:17:49;25.10;99.90
30234;DHT22;17046;52.074;4.748;2022-07-10T14:20:16;25.40;99.90
30234;DHT22;17046;52.074;4.748;2022-07-10T14:22:42;25.50;99.90
30234;DHT22;17046;52.074;4.748;2022-07-10T14:25:11;25.50;99.90
30234;DHT22;17046;52.074;4.748;2022-07-10T14:27:37;25.10;99.90
30234;DHT22;17046;52.074;4.748;2022-07-10T14:30:04;25.00;99.90
30234;DHT22;17046;52.074;4.748;2022-07-10T14:32:29;24.90;99.90
30234;DHT22;17046;52.074;4.748;2022-07-10T14:34:55;24.70;99.90
30234;DHT22;17046;52.074;4.748;2022-07-10T14:37:21;24.40;99.90
30234;DHT22;17046;52.074;4.748;2022-07-10T14:39:47;24.50;99.90
30234;DHT22;17046;52.074;4.748;2022-07-10T14:42:13;24.40;99.90
30234;DHT22;17046;52.074;4.748;2022-07-10T14:44:39;24.50;99.90
30234;DHT22;17046;52.074;4.748;2022-07-10T14:47:04;24.70;99.90
30234;DHT22;17046;52.074;4.748;2022-07-10T14:49:30;24.70;99.90
30234;DHT22;17046;52.074;4.748;2022-07-10T14:51:55;24.60;99.90
30234;DHT22;17046;52.074;4.748;2022-07-10T14:54:21;24.50;99.90
30234;DHT22;17046;52.074;4.748;2022-07-10T14:56:47;24.50;99.90
30234;DHT22;17046;52.074;4.748;2022-07-10T14:59:12;24.40;99.90
30234;DHT22;17046;52.074;4.748;2022-07-10T15:01:38;24.50;99.90
30234;DHT22;17046;52.074;4.748;2022-07-10T15:04:04;24.50;99.90
30234;DHT22;17046;52.074;4.748;2022-07-10T15:06:29;24.20;99.90
30234;DHT22;17046;52.074;4.748;2022-07-10T15:08:55;24.10;99.90
30234;DHT22;17046;52.074;4.748;2022-07-10T15:11:20;24.10;99.90
30234;DHT22;17046;52.074;4.748;2022-07-10T15:13:51;24.40;99.90
30234;DHT22;17046;52.074;4.748;2022-07-10T15:16:18;24.60;99.90
30234;DHT22;17046;52.074;4.748;2022-07-10T15:18:44;24.50;99.90
30234;DHT22;17046;52.074;4.748;2022-07-10T15:21:09;24.20;99.90
30234;DHT22;17046;52.074;4.748;2022-07-10T15:23:37;24.20;99.90
30234;DHT22;17046;52.074;4.748;2022-07-10T15:26:03;23.80;99.90
30234;DHT22;17046;52.074;4.748;2022-07-10T15:28:29;23.80;99.90
30234;DHT22;17046;52.074;4.748;2022-07-10T15:30:55;23.60;99.90
30234;DHT22;17046;52.074;4.748;2022-07-10T15:33:21;23.70;99.90
30234;DHT22;17046;52.074;4.748;2022-07-10T15:35:47;23.70;99.90
30234;DHT22;17046;52.074;4.748;2022-07-10T15:38:12;23.60;99.90
30234;DHT22;17046;52.074;4.748;2022-07-10T15:40:38;23.70;99.90
30234;DHT22;17046;52.074;4.748;2022-07-10T15:43:04;23.80;99.90
30234;DHT22;17046;52.074;4.748;2022-07-10T15:45:30;23.80;99.90
30234;DHT22;17046;52.074;4.748;2022-07-10T15:47:56;24.00;99.90
30234;DHT22;17046;52.074;4.748;2022-07-10T15:50:22;24.00;99.90
30234;DHT22;17046;52.074;4.748;2022-07-10T15:52:48;23.80;99.90
30234;DHT22;17046;52.074;4.748;2022-07-10T15:55:13;23.70;99.90
30234;DHT22;17046;52.074;4.748;2022-07-10T15:57:39;23.80;99.90
30234;DHT22;17046;52.074;4.748;2022-07-10T16:00:09;23.90;99.90